sensor_id;sensor_type;location;lat;lon;timestamp;pressure;altitude;pressure_sealevel;temperature;humidity
40245;BME280;25963;42.694;23.600;2022-12-11T00:02:03;93150.47;;;12.20;100.00
40245;BME280;25963;42.694;23.600;2022-12-11T00:04:29;93146.00;;;12.21;100.00
40245;BME280;25963;42.694;23.600;2022-12-11T00:06:54;93142.84;;;12.19;100.00
40245;BME280;25963;42.694;23.600;2022-12-11T00:09:20;93138.91;;;12.16;100.00
40245;BME280;25963;42.694;23.600;2022-12-11T00:11:46;93128.41;;;12.06;100.00
40245;BME280;25963;42.694;23.600;2022-12-11T00:14:12;93128.44;;;12.01;100.00
40245;BME280;25963;42.694;23.600;2022-12-11T00:16:38;93137.47;;;11.95;100.00
40245;BME280;25963;42.694;23.600;2022-12-11T00:19:04;93141.19;;;11.83;100.00
40245;BME280;25963;42.694;23.600;2022-12-11T00:21:29;93150.69;;;11.90;100.00
40245;BME280;25963;42.694;23.600;2022-12-11T00:23:54;93149.44;;;11.77;100.00
40245;BME280;25963;42.694;23.600;2022-12-11T00:26:20;93138.56;;;11.83;100.00
40245;BME280;25963;42.694;23.600;2022-12-11T00:28:46;93144.91;;;11.82;100.00
40245;BME280;25963;42.694;23.600;2022-12-11T00:31:18;93149.59;;;11.96;100.00
40245;BME280;25963;42.694;23.600;2022-12-11T00:33:44;93129.63;;;11.74;100.00
40245;BME280;25963;42.694;23.600;2022-12-11T00:36:17;93127.47;;;11.86;100.00
40245;BME280;25963;42.694;23.600;2022-12-11T00:38:43;93117.66;;;11.92;100.00
40245;BME280;25963;42.694;23.600;2022-12-11T00:41:09;93110.28;;;11.89;100.00
40245;BME280;25963;42.694;23.600;2022-12-11T00:43:35;93117.13;;;11.95;100.00
40245;BME280;25963;42.694;23.600;2022-12-11T00:46:00;93115.94;;;12.12;100.00
40245;BME280;25963;42.694;23.600;2022-12-11T00:48:26;93119.88;;;12.14;100.00
40245;BME280;25963;42.694;23.600;2022-12-11T00:50:51;93113.00;;;12.13;100.00
40245;BME280;25963;42.694;23.600;2022-12-11T00:53:17;93105.00;;;11.89;100.00
40245;BME280;25963;42.694;23.600;2022-12-11T00:55:42;93105.06;;;11.79;100.00
40245;BME280;25963;42.694;23.600;2022-12-11T00:58:09;93096.81;;;11.91;100.00
40245;BME280;25963;42.694;23.600;2022-12-11T01:00:35;93092.94;;;11.73;100.00
40245;BME280;25963;42.694;23.600;2022-12-11T01:03:00;93114.03;;;11.78;100.00
40245;BME280;25963;42.694;23.600;2022-12-11T01:05:26;93104.28;;;11.73;100.00
40245;BME280;25963;42.694;23.600;2022-12-11T01:07:51;93085.59;;;11.64;100.00
40245;BME280;25963;42.694;23.600;2022-12-11T01:10:17;93079.44;;;11.74;100.00
40245;BME280;25963;42.694;23.600;2022-12-11T01:13:03;93090.47;;;11.92;100.00
40245;BME280;25963;42.694;23.600;2022-12-11T01:15:32;93109.38;;;12.04;100.00
40245;BME280;25963;42.694;23.600;2022-12-11T01:17:57;93111.44;;;12.12;100.00
40245;BME280;25963;42.694;23.600;2022-12-11T01:20:25;93111.16;;;12.14;100.00
40245;BME280;25963;42.694;23.600;2022-12-11T01:22:57;93130.66;;;12.23;100.00
40245;BME280;25963;42.694;23.600;2022-12-11T01:25:24;93118.75;;;12.20;100.00
40245;BME280;25963;42.694;23.600;2022-12-11T01:27:51;93124.59;;;12.17;100.00
40245;BME280;25963;42.694;23.600;2022-12-11T01:30:18;93131.53;;;12.08;100.00
40245;BME280;25963;42.694;23.600;2022-12-11T01:32:44;93127.31;;;12.12;100.00
40245;BME280;25963;42.694;23.600;2022-12-11T01:35:10;93119.53;;;11.92;100.00
40245;BME280;25963;42.694;23.600;2022-12-11T01:37:36;93123.25;;;11.91;100.00
40245;BME280;25963;42.694;23.600;2022-12-11T01:40:02;93124.28;;;11.90;100.00
40245;BME280;25963;42.694;23.600;2022-12-11T01:42:28;93156.97;;;11.99;100.00
40245;BME280;25963;42.694;23.600;2022-12-11T01:47:48;93101.47;;;11.54;100.00
40245;BME280;25963;42.694;23.600;2022-12-11T01:50:14;93141.19;;;11.83;100.00
40245;BME280;25963;42.694;23.600;2022-12-11T01:52:41;93135.69;;;11.75;100.00
40245;BME280;25963;42.694;23.600;2022-12-11T01:55:08;93117.75;;;11.72;100.00
40245;BME280;25963;42.694;23.600;2022-12-11T01:57:36;93081.41;;;11.58;100.00
40245;BME280;25963;42.694;23.600;2022-12-11T02:00:05;93118.00;;;11.75;100.00
40245;BME280;25963;42.694;23.600;2022-12-11T02:02:32;93142.22;;;11.93;100.00
40245;BME280;25963;42.694;23.600;2022-12-11T02:04:58;93165.44;;;12.01;100.00
40245;BME280;25963;42.694;23.600;2022-12-11T02:07:26;93191.31;;;11.99;100.00
40245;BME280;25963;42.694;23.600;2022-12-11T02:09:52;93190.22;;;12.05;100.00
40245;BME280;25963;42.694;23.600;2022-12-11T02:12:25;93155.59;;;12.12;100.00
40245;BME280;25963;42.694;23.600;2022-12-11T02:20:42;93170.09;;;12.14;100.00
40245;BME280;25963;42.694;23.600;2022-12-11T02:25:49;93175.13;;;12.16;100.00
40245;BME280;25963;42.694;23.600;2022-12-11T02:30:51;93168.00;;;12.11;100.00
40245;BME280;25963;42.694;23.600;2022-12-11T02:33:24;93162.25;;;12.04;100.00
40245;BME280;25963;42.694;23.600;2022-12-11T02:35:51;93144.41;;;11.85;100.00
40245;BME280;25963;42.694;23.600;2022-12-11T02:38:25;93137.09;;;11.62;100.00
40245;BME280;25963;42.694;23.600;2022-12-11T02:40:54;93118.41;;;11.53;100.00
40245;BME280;25963;42.694;23.600;2022-12-11T02:43:22;93113.13;;;11.53;100.00
40245;BME280;25963;42.694;23.600;2022-12-11T02:45:48;93109.59;;;11.68;100.00
40245;BME280;25963;42.694;23.600;2022-12-11T02:48:16;93084.94;;;11.43;100.00
40245;BME280;25963;42.694;23.600;2022-12-11T02:50:45;93078.97;;;11.28;100.00
40245;BME280;25963;42.694;23.600;2022-12-11T02:53:14;93093.66;;;11.39;100.00
40245;BME280;25963;42.694;23.600;2022-12-11T02:55:41;93082.78;;;11.46;100.00
40245;BME280;25963;42.694;23.600;2022-12-11T02:58:21;93120.81;;;11.50;100.00
40245;BME280;25963;42.694;23.600;2022-12-11T03:00:49;93111.81;;;11.51;100.00
40245;BME280;25963;42.694;23.600;2022-12-11T03:03:15;93131.50;;;11.74;100.00
40245;BME280;25963;42.694;23.600;2022-12-11T03:05:41;93138.03;;;11.81;100.00
40245;BME280;25963;42.694;23.600;2022-12-11T03:08:06;93137.78;;;11.88;100.00
40245;BME280;25963;42.694;23.600;2022-12-11T03:10:32;93143.81;;;11.94;100.00
40245;BME280;25963;42.694;23.600;2022-12-11T03:12:58;93152.78;;;11.98;100.00
40245;BME280;25963;42.694;23.600;2022-12-11T03:15:36;93167.53;;;12.04;100.00
40245;BME280;25963;42.694;23.600;2022-12-11T03:18:15;93161.06;;;12.20;100.00
40245;BME280;25963;42.694;23.600;2022-12-11T03:20:45;93149.09;;;12.33;100.00
40245;BME280;25963;42.694;23.600;2022-12-11T03:28:15;93146.56;;;13.05;100.00
40245;BME280;25963;42.694;23.600;2022-12-11T03:30:45;93137.00;;;13.33;100.00
40245;BME280;25963;42.694;23.600;2022-12-11T03:33:26;93143.97;;;13.48;100.00
40245;BME280;25963;42.694;23.600;2022-12-11T03:36:00;93143.13;;;13.53;100.00
40245;BME280;25963;42.694;23.600;2022-12-11T03:38:32;93134.66;;;13.51;100.00
40245;BME280;25963;42.694;23.600;2022-12-11T03:41:00;93135.34;;;13.61;100.00
40245;BME280;25963;42.694;23.600;2022-12-11T03:43:28;93147.72;;;13.66;100.00
40245;BME280;25963;42.694;23.600;2022-12-11T03:45:57;93136.38;;;13.41;100.00
40245;BME280;25963;42.694;23.600;2022-12-11T03:48:27;93138.09;;;13.51;100.00
40245;BME280;25963;42.694;23.600;2022-12-11T03:50:54;93115.06;;;13.70;100.00
40245;BME280;25963;42.694;23.600;2022-12-11T03:53:20;93138.69;;;14.05;100.00
40245;BME280;25963;42.694;23.600;2022-12-11T03:55:46;93138.00;;;14.32;100.00
40245;BME280;25963;42.694;23.600;2022-12-11T03:58:13;93140.03;;;14.40;100.00
40245;BME280;25963;42.694;23.600;2022-12-11T04:00:39;93142.47;;;14.36;100.00
40245;BME280;25963;42.694;23.600;2022-12-11T04:03:04;93161.09;;;14.31;100.00
40245;BME280;25963;42.694;23.600;2022-12-11T04:05:46;93151.13;;;14.61;100.00
40245;BME280;25963;42.694;23.600;2022-12-11T04:08:12;93159.97;;;14.70;100.00
40245;BME280;25963;42.694;23.600;2022-12-11T04:10:38;93162.91;;;14.69;100.00
40245;BME280;25963;42.694;23.600;2022-12-11T04:13:04;93149.63;;;14.55;100.00
40245;BME280;25963;42.694;23.600;2022-12-11T04:15:30;93153.97;;;14.65;100.00
40245;BME280;25963;42.694;23.600;2022-12-11T04:17:55;93141.91;;;14.72;100.00
40245;BME280;25963;42.694;23.600;2022-12-11T04:20:39;93128.53;;;14.64;100.00
40245;BME280;25963;42.694;23.600;2022-12-11T04:23:23;93129.88;;;14.61;100.00
40245;BME280;25963;42.694;23.600;2022-12-11T04:26:17;93119.97;;;14.67;100.00
40245;BME280;25963;42.694;23.600;2022-12-11T04:28:45;93143.53;;;14.54;100.00
40245;BME280;25963;42.694;23.600;2022-12-11T04:31:15;93121.81;;;14.52;100.00
40245;BME280;25963;42.694;23.600;2022-12-11T04:33:42;93115.72;;;14.52;100.00
40245;BME280;25963;42.694;23.600;2022-12-11T04:36:08;93110.75;;;14.45;100.00
40245;BME280;25963;42.694;23.600;2022-12-11T04:38:35;93131.34;;;14.34;100.00
40245;BME280;25963;42.694;23.600;2022-12-11T04:41:04;93121.84;;;14.14;100.00
40245;BME280;25963;42.694;23.600;2022-12-11T04:43:30;93131.56;;;14.38;100.00
40245;BME280;25963;42.694;23.600;2022-12-11T04:48:26;93134.78;;;14.54;99.71
40245;BME280;25963;42.694;23.600;2022-12-11T04:50:52;93129.38;;;14.59;99.70
40245;BME280;25963;42.694;23.600;2022-12-11T04:53:17;93118.16;;;14.48;100.00
40245;BME280;25963;42.694;23.600;2022-12-11T04:55:43;93117.19;;;14.25;100.00
40245;BME280;25963;42.694;23.600;2022-12-11T04:58:08;93156.25;;;14.20;100.00
40245;BME280;25963;42.694;23.600;2022-12-11T05:00:33;93161.97;;;14.27;100.00
40245;BME280;25963;42.694;23.600;2022-12-11T05:02:59;93146.63;;;14.24;100.00
40245;BME280;25963;42.694;23.600;2022-12-11T05:05:24;93145.22;;;14.12;100.00
40245;BME280;25963;42.694;23.600;2022-12-11T05:07:50;93152.38;;;13.93;100.00
40245;BME280;25963;42.694;23.600;2022-12-11T05:10:15;93164.00;;;13.97;100.00
40245;BME280;25963;42.694;23.600;2022-12-11T05:12:41;93164.56;;;13.94;100.00
40245;BME280;25963;42.694;23.600;2022-12-11T05:15:06;93183.03;;;13.61;100.00
40245;BME280;25963;42.694;23.600;2022-12-11T05:17:32;93174.81;;;13.58;100.00
40245;BME280;25963;42.694;23.600;2022-12-11T05:19:58;93180.84;;;13.63;100.00
40245;BME280;25963;42.694;23.600;2022-12-11T05:22:23;93186.03;;;13.74;100.00
40245;BME280;25963;42.694;23.600;2022-12-11T05:24:49;93180.06;;;13.63;100.00
40245;BME280;25963;42.694;23.600;2022-12-11T05:27:14;93192.09;;;13.55;100.00
40245;BME280;25963;42.694;23.600;2022-12-11T05:29:40;93196.09;;;13.53;100.00
40245;BME280;25963;42.694;23.600;2022-12-11T05:32:05;93189.91;;;13.09;100.00
40245;BME280;25963;42.694;23.600;2022-12-11T05:34:31;93198.03;;;12.89;100.00
40245;BME280;25963;42.694;23.600;2022-12-11T05:36:57;93198.47;;;13.01;100.00
40245;BME280;25963;42.694;23.600;2022-12-11T05:39:22;93190.66;;;12.86;100.00
40245;BME280;25963;42.694;23.600;2022-12-11T05:41:48;93195.34;;;12.65;100.00
40245;BME280;25963;42.694;23.600;2022-12-11T05:44:13;93186.97;;;12.87;100.00
40245;BME280;25963;42.694;23.600;2022-12-11T05:46:39;93179.09;;;13.06;100.00
40245;BME280;25963;42.694;23.600;2022-12-11T05:49:04;93172.50;;;13.03;100.00
40245;BME280;25963;42.694;23.600;2022-12-11T05:51:31;93184.34;;;13.11;100.00
40245;BME280;25963;42.694;23.600;2022-12-11T05:53:58;93187.66;;;13.27;100.00
40245;BME280;25963;42.694;23.600;2022-12-11T05:56:30;93173.38;;;13.22;100.00
40245;BME280;25963;42.694;23.600;2022-12-11T05:58:57;93169.28;;;13.35;100.00
40245;BME280;25963;42.694;23.600;2022-12-11T06:01:28;93176.75;;;13.28;100.00
40245;BME280;25963;42.694;23.600;2022-12-11T06:03:54;93169.56;;;13.34;100.00
40245;BME280;25963;42.694;23.600;2022-12-11T06:06:20;93183.59;;;13.58;100.00
40245;BME280;25963;42.694;23.600;2022-12-11T06:08:49;93195.56;;;13.75;98.43
40245;BME280;25963;42.694;23.600;2022-12-11T06:11:15;93197.66;;;13.97;97.02
40245;BME280;25963;42.694;23.600;2022-12-11T06:13:40;93182.34;;;14.12;97.85
40245;BME280;25963;42.694;23.600;2022-12-11T06:16:06;93180.03;;;14.06;98.45
40245;BME280;25963;42.694;23.600;2022-12-11T06:18:40;93170.94;;;14.12;96.36
40245;BME280;25963;42.694;23.600;2022-12-11T06:21:20;93184.41;;;14.15;95.71
40245;BME280;25963;42.694;23.600;2022-12-11T06:23:47;93188.56;;;14.22;95.78
40245;BME280;25963;42.694;23.600;2022-12-11T06:26:14;93184.59;;;14.38;94.85
40245;BME280;25963;42.694;23.600;2022-12-11T06:28:39;93191.06;;;14.51;94.40
40245;BME280;25963;42.694;23.600;2022-12-11T06:31:05;93199.72;;;14.56;95.95
40245;BME280;25963;42.694;23.600;2022-12-11T06:33:31;93217.59;;;14.51;95.13
40245;BME280;25963;42.694;23.600;2022-12-11T06:36:01;93210.78;;;14.64;94.05
40245;BME280;25963;42.694;23.600;2022-12-11T06:38:27;93223.03;;;14.59;93.14
40245;BME280;25963;42.694;23.600;2022-12-11T06:40:54;93219.16;;;14.71;94.17
40245;BME280;25963;42.694;23.600;2022-12-11T06:43:21;93213.44;;;14.64;95.17
40245;BME280;25963;42.694;23.600;2022-12-11T06:45:46;93211.19;;;14.71;94.38
40245;BME280;25963;42.694;23.600;2022-12-11T06:48:12;93211.84;;;14.63;92.14
40245;BME280;25963;42.694;23.600;2022-12-11T06:50:37;93208.97;;;14.78;92.62
40245;BME280;25963;42.694;23.600;2022-12-11T06:53:03;93198.34;;;14.78;92.45
40245;BME280;25963;42.694;23.600;2022-12-11T06:55:29;93207.41;;;14.91;92.31
40245;BME280;25963;42.694;23.600;2022-12-11T06:57:54;93213.31;;;15.01;91.42
40245;BME280;25963;42.694;23.600;2022-12-11T07:00:19;93218.25;;;14.94;93.32
40245;BME280;25963;42.694;23.600;2022-12-11T07:02:45;93205.53;;;14.91;90.91
40245;BME280;25963;42.694;23.600;2022-12-11T07:05:10;93212.16;;;15.07;91.09
40245;BME280;25963;42.694;23.600;2022-12-11T07:07:36;93211.22;;;15.17;91.70
40245;BME280;25963;42.694;23.600;2022-12-11T07:10:02;93218.69;;;15.15;91.62
40245;BME280;25963;42.694;23.600;2022-12-11T07:12:28;93232.22;;;15.00;94.32
40245;BME280;25963;42.694;23.600;2022-12-11T07:14:53;93226.50;;;14.93;95.50
40245;BME280;25963;42.694;23.600;2022-12-11T07:17:18;93225.81;;;14.87;95.31
40245;BME280;25963;42.694;23.600;2022-12-11T07:19:44;93243.75;;;14.76;96.34
40245;BME280;25963;42.694;23.600;2022-12-11T07:22:09;93245.81;;;14.79;95.80
40245;BME280;25963;42.694;23.600;2022-12-11T07:24:35;93245.25;;;14.82;95.03
40245;BME280;25963;42.694;23.600;2022-12-11T07:27:00;93249.69;;;14.87;96.18
40245;BME280;25963;42.694;23.600;2022-12-11T07:29:26;93243.81;;;15.04;94.15
40245;BME280;25963;42.694;23.600;2022-12-11T07:31:51;93243.69;;;14.95;96.11
40245;BME280;25963;42.694;23.600;2022-12-11T07:34:17;93254.13;;;14.92;94.02
40245;BME280;25963;42.694;23.600;2022-12-11T07:36:42;93258.56;;;14.96;93.85
40245;BME280;25963;42.694;23.600;2022-12-11T07:39:10;93253.16;;;15.01;94.60
40245;BME280;25963;42.694;23.600;2022-12-11T07:41:36;93264.28;;;15.03;93.79
40245;BME280;25963;42.694;23.600;2022-12-11T07:44:01;93271.00;;;15.15;94.60
40245;BME280;25963;42.694;23.600;2022-12-11T07:46:29;93285.66;;;15.12;94.36
40245;BME280;25963;42.694;23.600;2022-12-11T07:48:55;93283.00;;;15.12;94.67
40245;BME280;25963;42.694;23.600;2022-12-11T07:51:23;93283.38;;;15.05;95.60
40245;BME280;25963;42.694;23.600;2022-12-11T07:53:53;93288.19;;;15.03;94.73
40245;BME280;25963;42.694;23.600;2022-12-11T07:56:19;93291.75;;;15.13;93.20
40245;BME280;25963;42.694;23.600;2022-12-11T07:58:45;93293.81;;;15.16;93.86
40245;BME280;25963;42.694;23.600;2022-12-11T08:01:19;93297.44;;;15.06;92.07
40245;BME280;25963;42.694;23.600;2022-12-11T08:03:46;93295.03;;;15.23;94.14
40245;BME280;25963;42.694;23.600;2022-12-11T08:06:12;93285.94;;;15.11;92.91
40245;BME280;25963;42.694;23.600;2022-12-11T08:08:38;93296.00;;;15.14;95.01
40245;BME280;25963;42.694;23.600;2022-12-11T08:11:07;93292.25;;;15.15;95.09
40245;BME280;25963;42.694;23.600;2022-12-11T08:13:33;93294.19;;;15.09;94.56
40245;BME280;25963;42.694;23.600;2022-12-11T08:16:03;93302.38;;;15.13;96.41
40245;BME280;25963;42.694;23.600;2022-12-11T08:18:28;93298.28;;;15.01;95.51
40245;BME280;25963;42.694;23.600;2022-12-11T08:20:54;93289.66;;;15.10;95.61
40245;BME280;25963;42.694;23.600;2022-12-11T08:23:20;93283.94;;;15.02;95.13
40245;BME280;25963;42.694;23.600;2022-12-11T08:25:45;93288.34;;;14.93;95.52
40245;BME280;25963;42.694;23.600;2022-12-11T08:28:11;93277.56;;;15.03;96.63
40245;BME280;25963;42.694;23.600;2022-12-11T08:30:37;93270.16;;;15.00;97.48
40245;BME280;25963;42.694;23.600;2022-12-11T08:33:04;93272.75;;;15.05;98.22
40245;BME280;25963;42.694;23.600;2022-12-11T08:35:29;93265.91;;;15.18;97.95
40245;BME280;25963;42.694;23.600;2022-12-11T08:37:55;93280.84;;;15.14;96.30
40245;BME280;25963;42.694;23.600;2022-12-11T08:40:20;93283.19;;;15.16;97.73
40245;BME280;25963;42.694;23.600;2022-12-11T08:42:46;93274.56;;;15.24;97.08
40245;BME280;25963;42.694;23.600;2022-12-11T08:45:11;93282.34;;;15.34;95.44
40245;BME280;25963;42.694;23.600;2022-12-11T08:47:37;93284.91;;;15.39;96.20
40245;BME280;25963;42.694;23.600;2022-12-11T08:50:03;93275.28;;;15.43;93.87
40245;BME280;25963;42.694;23.600;2022-12-11T08:52:29;93278.56;;;15.54;95.05
40245;BME280;25963;42.694;23.600;2022-12-11T08:54:56;93268.91;;;15.44;94.35
40245;BME280;25963;42.694;23.600;2022-12-11T08:57:22;93270.00;;;15.57;95.81
40245;BME280;25963;42.694;23.600;2022-12-11T08:59:48;93261.44;;;15.60;95.80
40245;BME280;25963;42.694;23.600;2022-12-11T09:02:13;93255.53;;;15.63;95.00
40245;BME280;25963;42.694;23.600;2022-12-11T09:04:38;93249.03;;;15.56;96.45
40245;BME280;25963;42.694;23.600;2022-12-11T09:07:04;93257.09;;;15.50;96.31
40245;BME280;25963;42.694;23.600;2022-12-11T09:09:29;93252.38;;;15.47;96.07
40245;BME280;25963;42.694;23.600;2022-12-11T09:11:55;93251.69;;;15.56;97.96
40245;BME280;25963;42.694;23.600;2022-12-11T09:14:21;93261.44;;;15.60;99.04
40245;BME280;25963;42.694;23.600;2022-12-11T09:16:46;93256.53;;;15.81;98.27
40245;BME280;25963;42.694;23.600;2022-12-11T09:19:13;93260.50;;;15.97;96.93
40245;BME280;25963;42.694;23.600;2022-12-11T09:21:40;93251.47;;;16.21;95.40
40245;BME280;25963;42.694;23.600;2022-12-11T09:24:07;93242.59;;;16.39;98.13
40245;BME280;25963;42.694;23.600;2022-12-11T09:26:33;93230.44;;;16.47;96.78
40245;BME280;25963;42.694;23.600;2022-12-11T09:29:01;93227.41;;;16.62;93.59
40245;BME280;25963;42.694;23.600;2022-12-11T09:31:30;93222.09;;;16.62;92.64
40245;BME280;25963;42.694;23.600;2022-12-11T09:33:58;93223.28;;;16.56;91.82
40245;BME280;25963;42.694;23.600;2022-12-11T09:36:25;93220.88;;;16.46;88.57
40245;BME280;25963;42.694;23.600;2022-12-11T09:38:51;93218.41;;;16.50;88.35
40245;BME280;25963;42.694;23.600;2022-12-11T09:43:58;93212.84;;;16.60;90.30
40245;BME280;25963;42.694;23.600;2022-12-11T09:46:26;93212.91;;;16.46;90.19
40245;BME280;25963;42.694;23.600;2022-12-11T09:48:52;93212.31;;;16.35;89.36
40245;BME280;25963;42.694;23.600;2022-12-11T09:51:42;93218.81;;;16.43;89.45
40245;BME280;25963;42.694;23.600;2022-12-11T09:54:12;93226.13;;;16.37;90.51
40245;BME280;25963;42.694;23.600;2022-12-11T09:56:41;93216.28;;;16.24;92.47
40245;BME280;25963;42.694;23.600;2022-12-11T10:08:04;93231.50;;;16.10;92.64
40245;BME280;25963;42.694;23.600;2022-12-11T10:10:56;93218.22;;;15.96;98.68
40245;BME280;25963;42.694;23.600;2022-12-11T10:13:45;93227.28;;;15.67;100.00
40245;BME280;25963;42.694;23.600;2022-12-11T10:19:00;93213.78;;;15.36;100.00
40245;BME280;25963;42.694;23.600;2022-12-11T10:21:30;93208.06;;;15.15;100.00
40245;BME280;25963;42.694;23.600;2022-12-11T10:24:02;93204.19;;;15.07;100.00
40245;BME280;25963;42.694;23.600;2022-12-11T10:26:29;93213.94;;;15.12;100.00
40245;BME280;25963;42.694;23.600;2022-12-11T10:28:59;93209.72;;;15.11;100.00
40245;BME280;25963;42.694;23.600;2022-12-11T10:31:50;93215.41;;;15.04;100.00
40245;BME280;25963;42.694;23.600;2022-12-11T10:34:34;93214.09;;;14.88;100.00
40245;BME280;25963;42.694;23.600;2022-12-11T10:37:00;93210.28;;;14.94;100.00
40245;BME280;25963;42.694;23.600;2022-12-11T10:39:26;93193.06;;;14.92;100.00
40245;BME280;25963;42.694;23.600;2022-12-11T10:41:53;93201.09;;;14.87;100.00
40245;BME280;25963;42.694;23.600;2022-12-11T10:44:27;93196.56;;;14.73;100.00
40245;BME280;25963;42.694;23.600;2022-12-11T10:47:13;93201.84;;;14.73;100.00
40245;BME280;25963;42.694;23.600;2022-12-11T10:49:53;93208.72;;;14.60;100.00
40245;BME280;25963;42.694;23.600;2022-12-11T10:52:22;93210.13;;;14.72;100.00
40245;BME280;25963;42.694;23.600;2022-12-11T10:57:37;93209.41;;;14.47;100.00
40245;BME280;25963;42.694;23.600;2022-12-11T11:00:30;93213.50;;;14.39;100.00
40245;BME280;25963;42.694;23.600;2022-12-11T11:02:57;93200.69;;;14.28;100.00
40245;BME280;25963;42.694;23.600;2022-12-11T11:05:41;93198.97;;;14.18;100.00
40245;BME280;25963;42.694;23.600;2022-12-11T11:08:17;93195.38;;;14.28;100.00
40245;BME280;25963;42.694;23.600;2022-12-11T11:10:58;93201.25;;;14.25;100.00
40245;BME280;25963;42.694;23.600;2022-12-11T11:13:28;93201.25;;;14.25;100.00
40245;BME280;25963;42.694;23.600;2022-12-11T11:16:04;93197.81;;;14.24;100.00
40245;BME280;25963;42.694;23.600;2022-12-11T11:18:31;93201.53;;;14.42;100.00
40245;BME280;25963;42.694;23.600;2022-12-11T11:20:58;93193.06;;;14.40;100.00
40245;BME280;25963;42.694;23.600;2022-12-11T11:23:25;93188.91;;;14.34;100.00
40245;BME280;25963;42.694;23.600;2022-12-11T11:26:00;93194.16;;;14.39;100.00
40245;BME280;25963;42.694;23.600;2022-12-11T11:28:38;93181.69;;;14.39;100.00
40245;BME280;25963;42.694;23.600;2022-12-11T11:31:08;93185.69;;;14.37;100.00
40245;BME280;25963;42.694;23.600;2022-12-11T11:33:35;93191.72;;;14.43;100.00
40245;BME280;25963;42.694;23.600;2022-12-11T11:36:06;93188.84;;;14.39;100.00
40245;BME280;25963;42.694;23.600;2022-12-11T11:38:40;93181.75;;;14.53;100.00
40245;BME280;25963;42.694;23.600;2022-12-11T11:41:16;93178.03;;;14.54;100.00
40245;BME280;25963;42.694;23.600;2022-12-11T11:44:04;93182.25;;;14.55;100.00
40245;BME280;25963;42.694;23.600;2022-12-11T11:46:41;93185.19;;;14.54;100.00
40245;BME280;25963;42.694;23.600;2022-12-11T11:49:50;93181.16;;;14.56;100.00
40245;BME280;25963;42.694;23.600;2022-12-11T11:52:45;93179.84;;;14.73;100.00
40245;BME280;25963;42.694;23.600;2022-12-11T11:55:39;93171.38;;;14.71;100.00
40245;BME280;25963;42.694;23.600;2022-12-11T11:58:38;93168.22;;;14.69;100.00
40245;BME280;25963;42.694;23.600;2022-12-11T12:01:16;93164.63;;;14.78;100.00
40245;BME280;25963;42.694;23.600;2022-12-11T12:03:44;93168.31;;;14.96;100.00
40245;BME280;25963;42.694;23.600;2022-12-11T12:12:07;93161.09;;;14.83;100.00
40245;BME280;25963;42.694;23.600;2022-12-11T12:15:14;93164.19;;;14.71;100.00
40245;BME280;25963;42.694;23.600;2022-12-11T12:17:57;93157.00;;;14.58;100.00
40245;BME280;25963;42.694;23.600;2022-12-11T12:20:49;93151.81;;;14.48;100.00
40245;BME280;25963;42.694;23.600;2022-12-11T12:23:32;93147.66;;;14.42;100.00
40245;BME280;25963;42.694;23.600;2022-12-11T12:34:30;93157.03;;;14.20;100.00
40245;BME280;25963;42.694;23.600;2022-12-11T12:37:01;93156.44;;;14.23;100.00
40245;BME280;25963;42.694;23.600;2022-12-11T12:47:50;93161.84;;;13.99;100.00
40245;BME280;25963;42.694;23.600;2022-12-11T12:50:19;93159.47;;;13.98;100.00
40245;BME280;25963;42.694;23.600;2022-12-11T12:52:46;93162.91;;;13.98;100.00
40245;BME280;25963;42.694;23.600;2022-12-11T12:55:15;93180.53;;;13.89;100.00
40245;BME280;25963;42.694;23.600;2022-12-11T12:57:53;93191.41;;;13.44;100.00
40245;BME280;25963;42.694;23.600;2022-12-11T13:03:02;93205.38;;;12.97;100.00
40245;BME280;25963;42.694;23.600;2022-12-11T13:05:41;93200.41;;;12.27;100.00
40245;BME280;25963;42.694;23.600;2022-12-11T13:08:07;93210.72;;;11.74;100.00
40245;BME280;25963;42.694;23.600;2022-12-11T13:10:36;93223.91;;;11.79;100.00
40245;BME280;25963;42.694;23.600;2022-12-11T13:13:04;93219.75;;;11.62;100.00
40245;BME280;25963;42.694;23.600;2022-12-11T13:18:01;93232.59;;;11.04;100.00
40245;BME280;25963;42.694;23.600;2022-12-11T13:20:30;93242.59;;;11.12;100.00
40245;BME280;25963;42.694;23.600;2022-12-11T13:25:26;93249.50;;;10.93;100.00
40245;BME280;25963;42.694;23.600;2022-12-11T13:27:52;93253.97;;;10.82;100.00
40245;BME280;25963;42.694;23.600;2022-12-11T13:33:04;93262.69;;;10.37;100.00
40245;BME280;25963;42.694;23.600;2022-12-11T13:35:32;93268.47;;;10.34;100.00
40245;BME280;25963;42.694;23.600;2022-12-11T13:38:19;93296.94;;;10.37;100.00
40245;BME280;25963;42.694;23.600;2022-12-11T13:40:51;93293.44;;;10.26;100.00
40245;BME280;25963;42.694;23.600;2022-12-11T13:43:23;93299.41;;;9.86;100.00
40245;BME280;25963;42.694;23.600;2022-12-11T13:45:53;93310.38;;;9.67;100.00
40245;BME280;25963;42.694;23.600;2022-12-11T13:48:28;93314.72;;;9.41;100.00
40245;BME280;25963;42.694;23.600;2022-12-11T13:50:56;93323.63;;;9.35;100.00
40245;BME280;25963;42.694;23.600;2022-12-11T13:53:23;93325.28;;;9.04;100.00
40245;BME280;25963;42.694;23.600;2022-12-11T13:56:00;93337.09;;;9.01;100.00
40245;BME280;25963;42.694;23.600;2022-12-11T13:58:26;93349.78;;;9.09;100.00
40245;BME280;25963;42.694;23.600;2022-12-11T14:01:08;93358.63;;;8.98;100.00
40245;BME280;25963;42.694;23.600;2022-12-11T14:03:38;93366.97;;;8.90;100.00
40245;BME280;25963;42.694;23.600;2022-12-11T14:06:08;93375.13;;;8.88;100.00